Time;durP1;ratioP1;P1;durP2;ratioP2;P2;SDS_P1;SDS_P2;PMS_P1;PMS_P2;Temp;Humidity;BMP_temperature;BMP_pressure;BME280_temperature;BME280_humidity;BME280_pressure;Samples;Min_cycle;Max_cycle;Signal;HPM_P1;HPM_P2
2022/08/06 00:01:56;;;;;;;2.33;2.13;;;;;;;20.86;63.38;97055.84;10541720;28;20073;-52
2022/08/06 00:07:15;;;;;;;2.20;2.00;;;;;;;20.87;63.45;97057.41;10546640;28;20066;-52
2022/08/06 00:12:35;;;;;;;2.38;2.17;;;;;;;20.86;63.30;97064.75;10541660;28;20047;-52
2022/08/06 00:17:54;;;;;;;2.03;1.92;;;;;;;20.86;63.36;97081.00;10540621;28;20502;-52
2022/08/06 00:23:13;;;;;;;2.05;1.95;;;;;;;20.86;63.32;97091.06;10528353;28;20051;-52
2022/08/06 00:28:32;;;;;;;2.40;2.20;;;;;;;20.86;63.27;97115.41;10540686;28;20052;-52
2022/08/06 00:33:51;;;;;;;2.47;2.28;;;;;;;20.86;63.38;97131.66;10540267;28;20055;-52
2022/08/06 00:39:11;;;;;;;2.20;2.10;;;;;;;20.86;63.29;97145.22;10540222;28;20048;-52
2022/08/06 00:44:30;;;;;;;2.40;2.20;;;;;;;20.86;63.31;97158.75;10540046;28;20048;-52
2022/08/06 00:49:50;;;;;;;1.90;1.80;;;;;;;20.85;63.32;97174.19;10540038;28;20052;-52
2022/08/06 00:55:09;;;;;;;2.17;2.00;;;;;;;20.86;63.38;97164.16;10539407;28;20102;-52
2022/08/06 01:00:28;;;;;;;2.13;1.92;;;;;;;20.86;63.38;97142.50;10538856;28;20048;-52
2022/08/06 01:05:47;;;;;;;2.20;2.10;;;;;;;20.86;63.32;97134.38;10539011;28;20044;-52
2022/08/06 01:11:07;;;;;;;3.20;2.10;;;;;;;20.85;63.38;97170.69;10539268;28;20513;-52
2022/08/06 01:16:32;;;;;;;2.20;2.00;;;;;;;20.86;63.41;97210.19;10531681;28;20056;-52
2022/08/06 01:22:10;;;;;;;2.03;1.85;;;;;;;20.86;63.43;97248.13;10538964;28;20055;-53
2022/08/06 01:27:54;;;;;;;1.93;1.83;;;;;;;20.86;63.38;97277.91;10538702;28;20048;-52
2022/08/06 01:33:17;;;;;;;2.40;2.20;;;;;;;20.86;63.32;97286.81;10547199;28;20376;-52
2022/08/06 01:38:41;;;;;;;1.98;1.88;;;;;;;20.87;63.45;97299.22;10538418;28;20059;-52
2022/08/06 01:44:03;;;;;;;2.00;1.90;;;;;;;20.87;63.13;97291.09;10551503;28;20413;-52
2022/08/06 01:49:27;;;;;;;1.98;1.88;;;;;;;20.87;63.32;97274.06;10539900;28;20044;-52
2022/08/06 01:54:49;;;;;;;1.92;1.83;;;;;;;20.87;63.35;97284.91;10550785;28;20047;-52
2022/08/06 02:00:09;;;;;;;1.88;1.58;;;;;;;20.86;63.41;97275.19;10537179;28;20059;-52
2022/08/06 02:05:35;;;;;;;1.70;1.60;;;;;;;20.86;63.29;97286.03;10537336;28;20040;-52
2022/08/06 02:10:55;;;;;;;1.70;1.60;;;;;;;20.86;63.05;97297.66;10537054;28;20403;-52
2022/08/06 02:16:15;;;;;;;2.00;1.70;;;;;;;20.85;63.07;97311.50;10536813;28;20052;-52
2022/08/06 02:21:36;;;;;;;1.55;1.45;;;;;;;20.87;63.10;97341.75;10553546;28;20101;-53
2022/08/06 02:26:56;;;;;;;1.80;1.52;;;;;;;20.87;63.07;97360.72;10555467;28;20039;-52
2022/08/06 02:32:16;;;;;;;1.40;1.30;;;;;;;20.86;62.93;97340.19;10542050;28;20487;-52
2022/08/06 02:37:41;;;;;;;2.42;1.40;;;;;;;20.85;62.90;97328.53;10544114;28;20060;-52
2022/08/06 07:28:25;;;;;;;1.10;1.00;;;;;;;21.04;59.91;97593.69;9362904;28;20456;-53
2022/08/06 07:33:45;;;;;;;1.10;1.00;;;;;;;21.01;59.82;97598.94;10542819;28;20113;-52
2022/08/06 07:39:09;;;;;;;1.38;1.10;;;;;;;20.98;59.82;97605.00;10529956;28;20052;-53
2022/08/06 07:44:30;;;;;;;2.40;1.23;;;;;;;20.96;59.96;97609.91;10541914;28;20403;-52
2022/08/06 07:49:54;;;;;;;1.10;1.00;;;;;;;20.93;59.44;97616.75;10541779;28;20048;-52
2022/08/06 09:19:44;;;;;;;1.17;0.60;;;;;;;20.28;54.48;97656.03;12673279;22;4173388;-79
2022/08/06 09:25:04;;;;;;;1.00;0.63;;;;;;;20.32;54.87;97652.38;12841031;23;20012;-78
2022/08/06 09:30:26;;;;;;;1.45;0.77;;;;;;;20.35;55.24;97646.38;12842312;23;20027;-78
2022/08/06 09:35:57;;;;;;;3.50;0.70;;;;;;;20.38;55.70;97644.94;12845648;23;20091;-79
2022/08/06 09:41:18;;;;;;;2.45;1.00;;;;;;;20.41;55.58;97667.91;12841917;23;20024;-79
2022/08/06 09:46:49;;;;;;;6.75;2.80;;;;;;;20.41;54.43;97655.16;12860593;23;20062;-79
2022/08/06 09:52:15;;;;;;;5.25;2.08;;;;;;;20.39;52.87;97657.38;12862353;23;20017;-78
2022/08/06 09:57:45;;;;;;;3.95;1.60;;;;;;;20.37;52.35;97662.31;12841396;23;20017;-77
2022/08/06 10:03:08;;;;;;;6.32;1.10;;;;;;;20.37;51.86;97667.72;12861412;23;20017;-79
2022/08/06 10:08:27;;;;;;;1.23;0.68;;;;;;;20.32;50.22;97668.63;12861336;23;20088;-80
2022/08/06 10:13:49;;;;;;;0.88;0.40;;;;;;;20.30;49.39;97670.06;12883457;23;20131;-79
2022/08/06 10:19:16;;;;;;;1.27;0.52;;;;;;;20.28;49.01;97667.66;12819256;23;20020;-79
2022/08/06 10:24:56;;;;;;;1.08;0.70;;;;;;;20.28;48.98;97658.75;12882558;23;20421;-79
2022/08/06 10:30:16;;;;;;;0.63;0.60;;;;;;;20.27;48.78;97657.16;12839512;23;20039;-80
2022/08/06 10:35:36;;;;;;;0.93;0.75;;;;;;;20.28;49.56;97653.31;12818957;23;20013;-80
2022/08/06 10:40:56;;;;;;;1.02;0.50;;;;;;;20.28;49.30;97661.44;12798454;23;20336;-80
2022/08/06 10:46:16;;;;;;;0.55;0.50;;;;;;;20.29;49.35;97660.34;12839547;23;20027;-80
2022/08/06 10:51:36;;;;;;;1.27;0.50;;;;;;;20.31;49.55;97664.34;12838144;23;20024;-80
2022/08/06 10:56:56;;;;;;;0.90;0.50;;;;;;;20.30;49.50;97664.63;12835298;23;20024;-80
2022/08/06 11:02:21;;;;;;;1.35;0.60;;;;;;;20.31;49.94;97667.03;12860173;23;20012;-80
2022/08/06 11:08:09;;;;;;;0.88;0.50;;;;;;;20.30;49.56;97670.84;12860161;23;20019;-79
2022/08/06 11:14:00;;;;;;;1.95;0.60;;;;;;;20.29;48.98;97661.13;9132463;23;10001038;-79
2022/08/06 11:19:37;;;;;;;1.25;0.70;;;;;;;20.30;48.73;97654.59;12757640;23;20071;-79
2022/08/06 11:24:57;;;;;;;0.55;0.50;;;;;;;20.30;49.27;97654.59;12735824;23;20014;-79
2022/08/06 11:30:17;;;;;;;1.38;0.47;;;;;;;20.28;49.12;97661.44;12733939;23;20021;-79
2022/08/06 11:35:39;;;;;;;1.00;0.40;;;;;;;20.28;49.66;97656.81;12735382;23;20014;-80
2022/08/06 11:41:00;;;;;;;1.75;0.43;;;;;;;20.30;49.86;97654.59;12715044;23;20013;-79
2022/08/06 11:46:20;;;;;;;0.75;0.52;;;;;;;20.28;48.73;97637.88;12757509;23;20491;-79
2022/08/06 11:51:43;;;;;;;0.88;0.40;;;;;;;20.28;47.83;97639.78;12735243;23;20029;-79
2022/08/06 11:57:12;;;;;;;0.40;0.40;;;;;;;20.27;48.12;97649.03;12735714;23;20017;-79
2022/08/06 12:02:49;;;;;;;1.48;0.40;;;;;;;20.26;48.00;97648.22;12714395;23;20452;-79
2022/08/06 12:08:18;;;;;;;0.60;0.40;;;;;;;20.27;47.94;97641.72;12757354;23;20026;-79
2022/08/06 12:13:38;;;;;;;0.50;0.50;;;;;;;20.27;47.93;97639.00;12731851;23;20068;-78
2022/08/06 12:19:00;;;;;;;1.45;0.57;;;;;;;20.26;46.62;97631.97;12735208;23;20028;-79
2022/08/06 12:24:23;;;;;;;0.90;0.60;;;;;;;20.25;47.42;97633.09;12714508;23;20018;-79
2022/08/06 12:29:43;;;;;;;1.77;0.55;;;;;;;20.26;47.57;97637.38;12735606;23;20072;-79
2022/08/06 12:35:09;;;;;;;1.83;0.50;;;;;;;20.27;47.94;97622.78;12734520;23;20052;-78
2022/08/06 12:40:28;;;;;;;2.08;0.70;;;;;;;20.29;48.61;97614.34;12734932;23;20437;-78
2022/08/06 12:45:56;;;;;;;2.45;0.73;;;;;;;20.30;49.19;97622.13;12714099;23;20096;-78
2022/08/06 12:51:15;;;;;;;0.82;0.70;;;;;;;20.30;48.77;97616.72;12717480;23;20021;-78
2022/08/06 12:56:39;;;;;;;0.60;0.60;;;;;;;20.30;48.63;97614.03;12739456;23;20025;-78
2022/08/06 13:01:59;;;;;;;1.02;0.50;;;;;;;20.31;48.90;97615.63;12738523;23;20341;-78
2022/08/06 13:07:19;;;;;;;1.60;0.70;;;;;;;20.32;48.89;97608.31;12717679;23;20024;-78
2022/08/06 13:12:39;;;;;;;1.60;0.60;;;;;;;20.32;48.42;97613.72;12738294;23;20025;-78
2022/08/06 13:18:16;;;;;;;0.45;0.43;;;;;;;20.32;48.68;97603.69;12758594;23;20338;-78
2022/08/06 13:23:38;;;;;;;4.68;0.95;;;;;;;20.33;49.01;97609.91;12717591;23;20018;-78
2022/08/06 13:29:09;;;;;;;0.95;0.60;;;;;;;20.34;48.53;97604.16;12738063;23;20073;-78
2022/08/06 13:34:28;;;;;;;0.85;0.60;;;;;;;20.35;48.18;97607.69;12738575;23;20080;-78
2022/08/06 13:39:52;;;;;;;1.23;0.80;;;;;;;20.34;48.53;97596.06;12717143;23;20068;-78
2022/08/06 13:45:27;;;;;;;2.20;0.80;;;;;;;20.34;48.61;97593.34;12717049;23;20105;-78
2022/08/06 13:50:47;;;;;;;0.50;0.50;;;;;;;20.37;48.26;97599.28;12716916;23;20467;-78
2022/08/06 13:56:07;;;;;;;0.90;0.55;;;;;;;20.38;48.02;97600.84;12716749;23;20430;-78
2022/08/06 14:01:27;;;;;;;1.50;0.60;;;;;;;20.38;46.81;97600.84;12759018;23;20528;-78
2022/08/06 14:06:50;;;;;;;4.03;2.78;;;;;;;20.35;46.40;97586.84;12737375;23;20014;-78
2022/08/06 14:12:10;;;;;;;3.78;1.90;;;;;;;20.37;47.09;97589.25;12737346;23;20018;-78
2022/08/06 14:17:30;;;;;;;6.55;1.80;;;;;;;20.37;47.61;97593.88;12716508;23;20097;-78
2022/08/06 14:22:50;;;;;;;2.38;0.77;;;;;;;20.39;47.33;97597.06;12736958;23;20116;-78
2022/08/06 14:28:09;;;;;;;1.25;0.50;;;;;;;20.39;47.72;97592.44;12715907;23;20069;-78
2022/08/06 14:33:29;;;;;;;6.15;4.07;;;;;;;20.39;47.58;97588.94;12736973;23;20022;-78
2022/08/06 14:38:49;;;;;;;2.33;1.90;;;;;;;20.39;47.78;97595.16;12715800;23;20092;-79
2022/08/06 14:49:47;;;;;;;5.13;4.13;;;;;;;20.41;46.67;97601.03;12719491;23;20017;-78
2022/08/06 14:55:08;;;;;;;1.70;1.38;;;;;;;20.41;46.24;97594.84;12715703;23;20040;-79
2022/08/06 15:00:27;;;;;;;2.13;0.65;;;;;;;20.42;46.07;97601.84;12736374;23;20017;-79
2022/08/06 15:05:47;;;;;;;2.03;0.52;;;;;;;20.41;46.30;97595.63;9052039;23;10001059;-78
2022/08/06 15:11:07;;;;;;;0.40;0.40;;;;;;;20.40;46.49;97595.94;12736097;23;20021;-78
2022/08/06 15:16:26;;;;;;;0.40;0.40;;;;;;;20.38;46.21;97595.44;12735519;23;20349;-77
2022/08/06 15:21:47;;;;;;;0.73;0.40;;;;;;;20.38;46.24;97600.84;12735753;23;20349;-78
2022/08/06 15:27:06;;;;;;;0.60;0.38;;;;;;;20.35;46.43;97599.56;12715446;23;20459;-78
2022/08/06 15:32:26;;;;;;;0.82;0.60;;;;;;;20.34;46.45;97596.06;12715315;23;20022;-78
2022/08/06 15:37:46;;;;;;;3.63;2.40;;;;;;;20.35;46.91;97594.97;12694634;23;20017;-77
2022/08/06 15:43:06;;;;;;;6.38;4.30;;;;;;;20.38;47.17;97588.13;12756304;23;20013;-77
2022/08/06 15:48:26;;;;;;;8.73;6.43;;;;;;;20.39;47.37;97592.44;12736225;23;20025;-77
2022/08/06 15:53:46;;;;;;;10.63;7.00;;;;;;;20.41;47.83;97589.44;12714605;23;20052;-78
2022/08/06 15:59:06;;;;;;;12.48;8.13;;;;;;;20.42;48.05;97604.53;12694494;23;20017;-78
2022/08/06 16:04:26;;;;;;;19.27;13.98;;;;;;;20.40;48.43;97604.84;12735377;23;20017;-77
2022/08/06 16:09:45;;;;;;;4.80;3.65;;;;;;;20.36;45.64;97598.47;12757230;23;20025;-77
2022/08/06 16:15:06;;;;;;;3.42;2.10;;;;;;;20.34;44.90;97604.16;12714808;23;20045;-78
2022/08/06 16:20:25;;;;;;;1.33;1.08;;;;;;;20.31;44.00;97602.09;12735085;23;20105;-77
2022/08/06 16:25:45;;;;;;;0.60;0.60;;;;;;;20.28;44.63;97597.28;12761208;23;20028;-77
2022/08/06 16:31:05;;;;;;;0.82;0.50;;;;;;;20.27;44.11;97595.72;12781265;23;20025;-77
2022/08/06 16:36:24;;;;;;;1.08;0.45;;;;;;;20.27;44.71;97605.75;12719150;23;20014;-78
2022/08/06 16:41:44;;;;;;;0.30;0.30;;;;;;;20.25;44.03;97603.34;12718218;23;20076;-77
2022/08/06 16:47:03;;;;;;;0.43;0.30;;;;;;;20.24;44.34;97607.13;12738722;23;20017;-78
2022/08/06 16:52:24;;;;;;;1.10;0.70;;;;;;;20.26;45.36;97606.84;12759665;23;20097;-78
2022/08/06 16:57:43;;;;;;;1.92;0.70;;;;;;;20.28;46.44;97600.00;12759689;23;20092;-78
2022/08/06 17:03:05;;;;;;;1.38;0.80;;;;;;;20.30;47.25;97614.03;12717887;23;20024;-77
2022/08/06 17:08:24;;;;;;;1.45;0.65;;;;;;;20.30;47.86;97605.91;12718146;23;20014;-78
2022/08/06 17:13:43;;;;;;;2.17;0.57;;;;;;;20.31;48.69;97604.00;12759108;23;20024;-77
2022/08/06 17:19:03;;;;;;;0.65;0.50;;;;;;;20.32;48.91;97600.19;12738298;23;20028;-77
2022/08/06 17:24:22;;;;;;;1.42;0.60;;;;;;;20.33;49.00;97610.72;12717504;23;20405;-77
2022/08/06 17:29:44;;;;;;;2.13;0.50;;;;;;;20.33;49.13;97608.00;12738196;23;20093;-78
2022/08/06 17:35:10;;;;;;;1.17;0.50;;;;;;;20.33;48.35;97613.41;12737638;23;20060;-78
2022/08/06 17:40:30;;;;;;;1.17;0.30;;;;;;;20.30;48.24;97611.31;12717711;23;20045;-78
2022/08/06 17:45:50;;;;;;;1.02;0.40;;;;;;;20.30;48.64;97611.31;12717078;23;20014;-78
2022/08/06 17:51:10;;;;;;;1.58;0.50;;;;;;;20.30;49.31;97616.72;12718257;23;20047;-78
2022/08/06 17:56:29;;;;;;;2.55;0.40;;;;;;;20.28;47.90;97612.75;12737507;23;20092;-78
2022/08/06 18:01:49;;;;;;;3.15;0.50;;;;;;;20.24;47.95;97612.56;12737525;23;20017;-78
2022/08/06 18:07:12;;;;;;;0.60;0.40;;;;;;;20.20;47.18;97608.88;12718163;23;20013;-78
2022/08/06 18:12:32;;;;;;;3.35;0.55;;;;;;;20.19;47.93;97612.69;12738566;23;20028;-77
2022/08/06 18:17:52;;;;;;;1.42;0.40;;;;;;;20.21;48.94;97604.25;12738106;23;20029;-78
2022/08/06 18:23:12;;;;;;;1.65;0.57;;;;;;;20.23;49.39;97602.84;12738297;23;20522;-78
2022/08/06 18:28:32;;;;;;;0.38;0.30;;;;;;;20.24;49.54;97606.34;12716773;23;20106;-77
2022/08/06 18:33:52;;;;;;;7.05;0.50;;;;;;;20.25;49.79;97611.47;12716577;23;20500;-77
2022/08/06 18:39:12;;;;;;;1.00;0.50;;;;;;;20.27;50.12;97611.94;12737211;23;20020;-77
2022/08/06 18:44:32;;;;;;;2.17;0.40;;;;;;;20.28;50.32;97621.66;12737998;23;20092;-77
2022/08/06 18:49:52;;;;;;;0.52;0.47;;;;;;;20.30;50.66;97626.75;12716427;23;20021;-78
2022/08/06 18:55:11;;;;;;;0.95;0.70;;;;;;;20.30;51.26;97616.72;12737016;23;20022;-78
2022/08/06 19:00:33;;;;;;;4.43;0.88;;;;;;;20.32;51.51;97621.84;12716440;23;20097;-83
2022/08/06 19:05:54;;;;;;;3.55;0.70;;;;;;;20.33;51.69;97621.53;12720253;23;20028;-80
2022/08/06 19:11:13;;;;;;;1.40;0.63;;;;;;;20.35;52.20;97630.13;12721686;23;20445;-81
2022/08/06 19:16:32;;;;;;;1.20;0.70;;;;;;;20.35;52.10;97630.13;12716423;23;20028;-82
2022/08/06 19:21:52;;;;;;;1.63;0.60;;;;;;;20.35;52.25;97635.56;12713816;23;20025;-82
2022/08/06 19:27:11;;;;;;;2.10;0.70;;;;;;;20.34;52.24;97631.22;12708401;23;20024;-83
2022/08/06 19:32:31;;;;;;;2.75;0.75;;;;;;;20.34;52.70;97639.34;12753179;23;20056;-81
2022/08/06 19:37:50;;;;;;;2.08;0.70;;;;;;;20.33;52.76;97648.59;12736281;23;20018;-80
2022/08/06 19:43:14;;;;;;;3.30;0.73;;;;;;;20.33;52.76;97648.59;12736696;23;20051;-81
2022/08/06 19:48:34;;;;;;;3.60;0.90;;;;;;;20.32;52.99;97651.59;12756591;23;20101;-83
2022/08/06 19:53:54;;;;;;;1.42;0.88;;;;;;;20.33;53.08;97645.09;12737413;23;20433;-80
2022/08/06 19:59:14;;;;;;;3.13;0.95;;;;;;;20.34;53.22;97662.91;12715890;23;20013;-81
2022/08/06 20:04:33;;;;;;;3.28;1.20;;;;;;;20.33;53.28;97666.75;12715435;23;20049;-83
2022/08/06 20:09:54;;;;;;;1.52;0.93;;;;;;;20.35;53.26;97667.22;12715905;23;20080;-84
2022/08/06 20:15:17;;;;;;;2.05;1.05;;;;;;;20.35;53.20;97684.25;12716180;23;20044;-85
2022/08/06 20:20:37;;;;;;;5.18;1.00;;;;;;;20.34;52.28;97677.22;12715606;23;20073;-81
2022/08/06 20:25:56;;;;;;;1.63;0.68;;;;;;;20.24;48.83;97674.78;12735704;23;20069;-81
2022/08/06 20:31:16;;;;;;;0.90;0.60;;;;;;;20.11;47.72;97671.03;12715075;23;20380;-82
2022/08/06 20:36:35;;;;;;;1.60;0.50;;;;;;;20.08;48.91;97678.97;12714958;23;20017;-80
2022/08/06 20:41:55;;;;;;;1.20;0.77;;;;;;;20.13;50.05;97673.41;12736315;23;20021;-81
2022/08/06 20:47:16;;;;;;;1.40;0.77;;;;;;;20.19;50.90;97674.09;12735768;23;20021;-81
2022/08/06 20:52:36;;;;;;;1.35;0.63;;;;;;;20.22;51.28;97671.59;12715858;23;20022;-80
2022/08/06 20:57:56;;;;;;;1.65;0.70;;;;;;;20.23;51.80;97670.50;12735682;23;20021;-81
2022/08/06 21:03:15;;;;;;;0.75;0.60;;;;;;;20.25;51.87;97662.88;12714804;23;20021;-80
2022/08/06 21:08:34;;;;;;;1.20;0.70;;;;;;;20.26;52.06;97666.38;12736443;23;20013;-80
2022/08/06 21:13:54;;;;;;;1.33;0.55;;;;;;;20.26;52.10;97669.84;12739221;23;20029;-81
2022/08/06 21:19:13;;;;;;;0.70;0.70;;;;;;;20.26;52.20;97679.88;12741983;23;20025;-81
2022/08/06 21:24:32;;;;;;;1.98;0.70;;;;;;;20.25;52.47;97664.78;12697480;23;20076;-81
2022/08/06 21:29:52;;;;;;;1.55;0.75;;;;;;;20.26;52.28;97675.28;12718349;23;20541;-81
2022/08/06 21:35:11;;;;;;;1.67;0.75;;;;;;;20.26;52.42;97677.97;12759425;23;20014;-80
2022/08/06 21:40:31;;;;;;;1.85;0.70;;;;;;;20.26;52.63;97679.88;12717473;23;20018;-80
2022/08/06 21:45:51;;;;;;;1.88;0.60;;;;;;;20.26;52.72;97672.56;12760857;23;20025;-80
2022/08/06 21:51:11;;;;;;;0.60;0.60;;;;;;;20.27;52.66;97681.50;12738474;23;20017;-81
2022/08/06 21:56:31;;;;;;;0.80;0.55;;;;;;;20.26;52.68;97680.69;12717584;23;20017;-80
2022/08/06 22:01:51;;;;;;;1.17;0.70;;;;;;;20.26;52.81;97688.00;12717694;23;20017;-81
2022/08/06 22:07:10;;;;;;;1.23;0.60;;;;;;;20.26;52.82;97685.31;12758871;23;20458;-80
2022/08/06 22:12:29;;;;;;;0.70;0.60;;;;;;;20.25;52.70;97681.81;12696769;23;20394;-80
2022/08/06 22:17:48;;;;;;;1.00;0.80;;;;;;;20.26;52.89;97679.88;12736852;23;20021;-80
2022/08/06 22:23:08;;;;;;;1.00;0.90;;;;;;;20.26;52.96;97675.28;12757882;23;20017;-80
2022/08/06 22:28:28;;;;;;;1.70;0.63;;;;;;;20.26;53.06;97685.31;12716476;23;20017;-80
2022/08/06 22:33:47;;;;;;;0.50;0.50;;;;;;;20.26;53.13;97686.09;12716398;23;20044;-80
2022/08/06 22:39:07;;;;;;;0.63;0.60;;;;;;;20.26;53.21;97677.97;12737047;23;20013;-81
2022/08/06 22:44:26;;;;;;;1.30;0.60;;;;;;;20.26;53.18;97672.56;12736872;23;20014;-81
2022/08/06 22:49:45;;;;;;;1.48;0.80;;;;;;;20.24;53.32;97663.97;12758370;23;20397;-81
2022/08/06 22:55:05;;;;;;;1.23;0.73;;;;;;;20.25;53.37;97667.50;12695445;23;20018;-80
2022/08/06 23:00:25;;;;;;;2.03;0.82;;;;;;;20.24;53.31;97663.16;12736481;23;20076;-81
2022/08/06 23:05:44;;;;;;;0.90;0.80;;;;;;;20.25;53.41;97665.56;12736374;23;20013;-81
2022/08/06 23:11:04;;;;;;;0.90;0.80;;;;;;;20.24;53.45;97655.84;12695379;23;20032;-80
2022/08/06 23:16:24;;;;;;;1.00;0.68;;;;;;;20.25;53.56;97659.38;12735614;23;20457;-81
2022/08/06 23:21:43;;;;;;;1.10;0.90;;;;;;;20.24;53.47;97655.84;12735753;23;20020;-81
2022/08/06 23:27:04;;;;;;;1.77;0.85;;;;;;;20.25;53.65;97667.50;12695296;23;20033;-81
2022/08/06 23:32:24;;;;;;;1.10;0.80;;;;;;;20.24;53.53;97672.06;12714993;23;20022;-81
2022/08/06 23:37:43;;;;;;;0.80;0.80;;;;;;;20.24;53.63;97674.78;12715183;23;20017;-81
2022/08/06 23:43:02;;;;;;;0.95;0.90;;;;;;;20.24;53.63;97688.31;12714873;23;20025;-81
2022/08/06 23:48:21;;;;;;;0.90;0.80;;;;;;;20.24;53.58;97676.69;12694473;23;20349;-81
2022/08/06 23:53:42;;;;;;;1.27;0.80;;;;;;;20.23;53.64;97670.50;12756025;23;20021;-81
2022/08/06 23:59:02;;;;;;;1.60;1.00;;;;;;;20.24;53.68;97680.19;12715098;23;20021;-81
